Trow Hill, Vermont
Current Conditions -  °F | °C
As of 11:15 PM on Wednesday 17 Dec 2014 (Local Time) from KMPV Reporting Station
Overcast Overcast  
Wind Chill: 30°   Ceiling: 4300
Heat Index: 34°   Visibility: 10mi
Dew Point: 32°   Wind: 5mph
Humidity: 92%   Direction: 350°N
Pressure: 29.74"   Gusts: NA
Location:  44.1738°N, 72.4252°W
Report Text: KMPV 180415Z AUTO 35004KT 10SM FEW015 SCT028 OVC043 01/00 A2974 RMK AO2 T00110000
Loading
Personal Weather Stations






























Interactive Weather Map New forecast layout! Learn more

10-Day Weather Forecast

Advertisements
Track Severe Weather on mobile